createdAt,value
2023-04-21T00:01:39.510Z,100747.25
2023-04-21T00:04:08.251Z,100747.25
2023-04-21T00:06:36.681Z,100741.50
2023-04-21T00:09:05.568Z,100744.38
2023-04-21T00:11:33.328Z,100747.06
2023-04-21T00:14:01.023Z,100737.66
2023-04-21T00:16:30.288Z,100732.81
2023-04-21T00:18:58.336Z,100729.44
2023-04-21T00:21:26.781Z,100716.47
2023-04-21T00:23:54.452Z,100710.69
2023-04-21T00:26:22.131Z,100710.50
2023-04-21T00:28:49.838Z,100710.97
2023-04-21T00:31:17.831Z,100709.00
2023-04-21T00:33:46.998Z,100704.56
2023-04-21T00:36:14.682Z,100699.81
2023-04-21T00:38:42.421Z,100696.97
2023-04-21T00:41:10.126Z,100690.31
2023-04-21T00:43:37.801Z,100679.91
2023-04-21T00:46:05.851Z,100685.31
2023-04-21T00:48:33.535Z,100675.34
2023-04-21T00:51:02.746Z,100675.34
2023-04-21T00:53:30.571Z,100673.06
2023-04-21T00:55:58.387Z,100678.91
2023-04-21T00:58:26.155Z,100670.63
2023-04-21T01:00:53.972Z,100661.81
2023-04-21T01:03:21.847Z,100663.59
2023-04-21T01:05:49.791Z,100664.91
2023-04-21T01:08:18.906Z,100654.53
2023-04-21T01:10:46.644Z,100654.59
2023-04-21T01:13:14.387Z,100664.50
2023-04-21T01:15:42.102Z,100660.25
2023-04-21T01:18:09.867Z,100654.44
2023-04-21T01:20:39.049Z,100658.41
2023-04-21T01:23:08.258Z,100653.22
2023-04-21T01:25:36.073Z,100656.78
2023-04-21T01:28:03.884Z,100661.88
2023-04-21T01:30:31.626Z,100666.06
2023-04-21T01:33:00.736Z,100657.88
2023-04-21T01:35:28.617Z,100657.69
2023-04-21T01:37:56.340Z,100666.59
2023-04-21T01:40:25.611Z,100663.78
2023-04-21T01:42:53.323Z,100659.94
2023-04-21T01:45:21.001Z,100656.88
2023-04-21T01:47:48.730Z,100653.09
2023-04-21T01:50:16.515Z,100649.63
2023-04-21T01:52:44.226Z,100653.25
2023-04-21T01:55:11.928Z,100660.47
2023-04-21T01:57:40.967Z,100654.75
2023-04-21T02:00:10.312Z,100648.91
2023-04-21T02:02:38.226Z,100645.56
2023-04-21T02:05:06.959Z,100653.66
2023-04-21T02:07:34.652Z,100651.69
2023-04-21T02:10:02.875Z,100647.91
2023-04-21T02:12:30.961Z,100643.44
2023-04-21T02:15:00.101Z,100638.25
2023-04-21T02:17:27.874Z,100625.22
2023-04-21T02:19:55.837Z,100634.72
2023-04-21T02:22:23.526Z,100625.09
2023-04-21T02:24:51.617Z,100628.88
2023-04-21T02:27:19.380Z,100622.69
2023-04-21T02:29:47.078Z,100617.59
2023-04-21T02:32:25.593Z,100612.44
2023-04-21T02:34:54.243Z,100618.38
2023-04-21T02:37:22.024Z,100611.06
2023-04-21T02:39:49.794Z,100607.31
2023-04-21T02:42:17.552Z,100611.19
2023-04-21T02:44:45.314Z,100610.28
2023-04-21T02:47:13.015Z,100607.81
2023-04-21T02:49:45.625Z,100612.69
2023-04-21T02:52:13.535Z,100602.84
2023-04-21T02:54:41.223Z,100599.41
2023-04-21T02:57:09.004Z,100604.88
2023-04-21T02:59:36.736Z,100601.94
2023-04-21T03:02:04.738Z,100602.38
2023-04-21T03:04:33.854Z,100602.53
2023-04-21T03:07:03.003Z,100604.78
2023-04-21T03:09:30.742Z,100596.72
2023-04-21T03:11:58.452Z,100594.91
2023-04-21T03:14:26.123Z,100594.41
2023-04-21T03:16:53.840Z,100592.78
2023-04-21T03:19:21.866Z,100591.19
2023-04-21T03:21:49.777Z,100589.09
2023-04-21T03:24:19.362Z,100593.22
2023-04-21T03:26:47.200Z,100592.00
2023-04-21T03:29:14.900Z,100584.00
2023-04-21T03:31:42.645Z,100580.47
2023-04-21T03:34:10.402Z,100581.41
2023-04-21T03:36:38.126Z,100579.56
2023-04-21T03:39:19.202Z,100576.22
2023-04-21T03:41:48.777Z,100577.97
2023-04-21T03:44:16.509Z,100572.38
2023-04-21T03:46:44.271Z,100572.94
2023-04-21T03:49:12.105Z,100570.34
2023-04-21T03:51:39.795Z,100573.13
2023-04-21T03:54:08.343Z,100567.63
2023-04-21T03:56:36.078Z,100575.13
2023-04-21T03:59:05.764Z,100577.97
2023-04-21T04:01:34.787Z,100576.56
2023-04-21T04:04:03.059Z,100574.69
2023-04-21T04:06:32.168Z,100571.75
2023-04-21T04:09:02.478Z,100571.75
2023-04-21T04:11:30.332Z,100573.06
2023-04-21T04:13:58.618Z,100578.75
2023-04-21T04:16:29.026Z,100576.16
2023-04-21T04:18:57.022Z,100567.66
2023-04-21T04:21:24.724Z,100563.06
2023-04-21T04:23:53.281Z,100561.91
2023-04-21T04:26:22.657Z,100562.97
2023-04-21T04:28:50.610Z,100570.94
2023-04-21T04:31:18.399Z,100566.41
2023-04-21T04:33:47.491Z,100564.88
2023-04-21T04:36:15.184Z,100568.94
2023-04-21T04:38:42.911Z,100563.72
2023-04-21T04:41:12.695Z,100567.19
2023-04-21T04:43:40.418Z,100559.66
2023-04-21T04:46:09.093Z,100562.16
2023-04-21T04:48:36.920Z,100551.72
2023-04-21T04:51:06.222Z,100549.13
2023-04-21T04:53:34.106Z,100553.09
2023-04-21T04:56:01.906Z,100556.75
2023-04-21T04:58:29.633Z,100565.44
2023-04-21T05:00:57.383Z,100560.91
2023-04-21T05:03:25.313Z,100563.81
2023-04-21T05:05:54.292Z,100563.56
2023-04-21T05:08:23.363Z,100572.63
2023-04-21T05:10:51.072Z,100573.97
2023-04-21T05:13:18.930Z,100574.34
2023-04-21T05:15:46.652Z,100577.81
2023-04-21T05:18:14.392Z,100565.59
2023-04-21T05:20:42.572Z,100569.03
2023-04-21T05:23:10.335Z,100568.50
2023-04-21T05:25:39.568Z,100572.91
2023-04-21T05:28:07.342Z,100566.69
2023-04-21T05:30:35.130Z,100572.81
2023-04-21T05:33:02.875Z,100565.25
2023-04-21T05:35:31.879Z,100568.03
2023-04-21T05:37:59.610Z,100568.44
2023-04-21T05:40:27.300Z,100571.84
2023-04-21T05:42:56.391Z,100575.22
2023-04-21T05:45:24.124Z,100574.50
2023-04-21T05:47:51.983Z,100581.81
2023-04-21T05:50:19.905Z,100577.06
2023-04-21T05:52:47.604Z,100565.25
2023-04-21T05:55:15.283Z,100565.19
2023-04-21T05:57:42.981Z,100565.91
2023-04-21T06:00:13.529Z,100574.47
2023-04-21T06:02:41.478Z,100575.50
2023-04-21T06:05:09.531Z,100573.75
2023-04-21T06:07:38.184Z,100571.25
2023-04-21T06:10:06.553Z,100566.72
2023-04-21T06:12:34.271Z,100566.22
2023-04-21T06:15:02.006Z,100556.56
2023-04-21T06:17:31.143Z,100565.72
2023-04-21T06:19:59.122Z,100565.53
2023-04-21T06:22:28.328Z,100565.91
2023-04-21T06:24:56.028Z,100575.00
2023-04-21T06:27:23.785Z,100568.19
2023-04-21T06:29:56.421Z,100566.41
2023-04-21T06:32:24.156Z,100565.09
2023-04-21T06:34:53.296Z,100556.81
2023-04-21T06:37:21.017Z,100556.06
2023-04-21T06:39:48.723Z,100551.06
2023-04-21T06:42:16.406Z,100556.06
2023-04-21T06:44:44.188Z,100549.75
2023-04-21T06:47:11.947Z,100554.28
2023-04-21T06:49:40.123Z,100548.41
2023-04-21T06:52:09.364Z,100550.38
2023-04-21T06:54:37.113Z,100544.63
2023-04-21T06:57:05.072Z,100544.44
2023-04-21T06:59:32.831Z,100543.94
2023-04-21T07:02:00.541Z,100538.06
2023-04-21T07:04:30.171Z,100540.19
2023-04-21T07:06:58.802Z,100540.06
2023-04-21T07:09:29.457Z,100532.72
2023-04-21T07:11:57.161Z,100538.81
2023-04-21T07:14:24.914Z,100550.84
2023-04-21T07:16:52.851Z,100543.69
2023-04-21T07:19:20.896Z,100538.22
2023-04-21T07:21:48.769Z,100535.19
2023-04-21T07:24:16.511Z,100533.69
2023-04-21T07:26:45.667Z,100532.06
2023-04-21T07:29:13.398Z,100523.97
2023-04-21T07:31:41.152Z,100524.19
2023-04-21T07:34:08.963Z,100522.88
2023-04-21T07:36:38.096Z,100528.34
2023-04-21T07:39:06.337Z,100523.66
2023-04-21T07:41:34.110Z,100515.03
2023-04-21T07:44:03.186Z,100518.78
2023-04-21T07:46:32.031Z,100529.25
2023-04-21T07:49:03.591Z,100530.59
2023-04-21T07:51:31.998Z,100523.34
2023-04-21T07:53:59.911Z,100522.88
2023-04-21T07:56:27.634Z,100519.69
2023-04-21T07:58:55.501Z,100522.44
2023-04-21T08:01:24.733Z,100526.63
2023-04-21T08:03:52.571Z,100518.00
2023-04-21T08:06:20.776Z,100513.91
2023-04-21T08:08:48.940Z,100531.28
2023-04-21T08:11:16.744Z,100531.00
2023-04-21T08:13:44.544Z,100526.16
2023-04-21T08:16:12.332Z,100531.50
2023-04-21T08:18:41.493Z,100520.66
2023-04-21T08:21:09.724Z,100513.84
2023-04-21T08:23:37.415Z,100513.69
2023-04-21T08:26:05.284Z,100521.22
2023-04-21T08:28:33.007Z,100520.38
2023-04-21T08:31:02.118Z,100504.00
2023-04-21T08:33:29.954Z,100513.50
2023-04-21T08:36:04.222Z,100514.81
2023-04-21T08:38:36.420Z,100501.72
2023-04-21T08:41:05.445Z,100506.94
2023-04-21T08:43:34.208Z,100503.75
2023-04-21T08:46:07.137Z,100500.75
2023-04-21T08:48:37.387Z,100492.28
2023-04-21T08:51:09.776Z,100497.31
2023-04-21T08:53:38.042Z,100499.53
2023-04-21T08:58:37.121Z,100485.06
2023-04-21T09:01:04.956Z,100489.16
2023-04-21T09:03:32.892Z,100486.63
2023-04-21T09:06:02.594Z,100494.91
2023-04-21T09:08:32.559Z,100490.00
2023-04-21T09:11:01.844Z,100484.94
2023-04-21T09:13:34.355Z,100483.97
2023-04-21T09:16:03.556Z,100474.25
2023-04-21T09:18:35.941Z,100467.16
2023-04-21T09:21:08.621Z,100482.47
2023-04-21T09:23:46.537Z,100481.13
2023-04-21T09:26:15.848Z,100468.72
2023-04-21T09:28:44.631Z,100466.25
2023-04-21T09:31:19.790Z,100473.59
2023-04-21T09:33:57.080Z,100471.81
2023-04-21T09:36:28.315Z,100469.47
2023-04-21T09:41:32.971Z,100466.94
2023-04-21T09:44:01.472Z,100470.88
2023-04-21T09:46:31.217Z,100465.16
2023-04-21T09:49:01.981Z,100453.78
2023-04-21T09:51:49.068Z,100458.78
2023-04-21T09:56:55.188Z,100458.75
2023-04-21T09:59:28.206Z,100461.16
2023-04-21T10:01:58.742Z,100459.38
2023-04-21T10:04:27.405Z,100460.16
2023-04-21T10:06:56.605Z,100446.19
2023-04-21T10:09:28.368Z,100456.31
2023-04-21T10:11:56.695Z,100450.75
2023-04-21T10:14:26.405Z,100445.09
2023-04-21T10:16:58.279Z,100442.63
2023-04-21T10:19:27.482Z,100445.13
2023-04-21T10:21:57.504Z,100439.44
2023-04-21T10:24:29.805Z,100435.50
2023-04-21T10:27:01.700Z,100437.78
2023-04-21T10:29:40.323Z,100433.22
2023-04-21T10:32:11.913Z,100436.09
2023-04-21T10:34:40.663Z,100437.59
2023-04-21T10:37:15.573Z,100420.94
2023-04-21T10:39:58.264Z,100422.88
2023-04-21T10:42:31.201Z,100426.72
2023-04-21T10:45:06.661Z,100412.41
2023-04-21T10:47:38.478Z,100414.88
2023-04-21T10:50:17.827Z,100418.53
2023-04-21T10:52:47.524Z,100410.19
2023-04-21T10:55:17.125Z,100403.75
2023-04-21T10:57:46.546Z,100411.31
2023-04-21T11:00:19.720Z,100394.00
2023-04-21T11:02:55.740Z,100400.66
2023-04-21T11:05:29.279Z,100395.88
2023-04-21T11:08:11.296Z,100395.59
2023-04-21T11:10:52.768Z,100394.06
2023-04-21T11:13:25.528Z,100387.75
2023-04-21T11:16:05.901Z,100379.75
2023-04-21T11:18:43.845Z,100378.25
2023-04-21T11:21:21.490Z,100371.69
2023-04-21T11:23:50.670Z,100366.75
2023-04-21T11:26:21.036Z,100371.44
2023-04-21T11:28:50.646Z,100359.72
2023-04-21T11:31:18.716Z,100366.78
2023-04-21T11:33:46.543Z,100370.78
2023-04-21T11:36:14.360Z,100363.38
2023-04-21T11:38:42.653Z,100363.84
2023-04-21T11:41:11.286Z,100365.16
2023-04-21T11:43:40.497Z,100357.97
2023-04-21T11:46:17.752Z,100360.19
2023-04-21T11:48:45.682Z,100354.69
2023-04-21T11:51:19.285Z,100360.06
2023-04-21T11:53:48.752Z,100359.94
2023-04-21T11:56:19.968Z,100360.91
2023-04-21T11:58:50.248Z,100355.66
2023-04-21T12:01:18.206Z,100358.13
2023-04-21T12:03:52.986Z,100354.19
2023-04-21T12:06:25.863Z,100358.56
2023-04-21T12:08:58.579Z,100346.00
2023-04-21T12:11:28.772Z,100351.84
2023-04-21T12:13:59.522Z,100343.13
2023-04-21T12:16:28.413Z,100337.50
2023-04-21T12:18:56.814Z,100335.66
2023-04-21T12:21:28.501Z,100339.78
2023-04-21T12:23:56.203Z,100341.56
2023-04-21T12:26:24.806Z,100343.25
2023-04-21T12:28:52.684Z,100330.09
2023-04-21T12:31:21.773Z,100333.94
2023-04-21T12:33:49.509Z,100339.06
2023-04-21T12:36:17.556Z,100334.34
2023-04-21T12:38:45.605Z,100334.47
2023-04-21T12:41:13.342Z,100334.31
2023-04-21T12:43:41.121Z,100333.81
2023-04-21T12:46:08.905Z,100336.84
2023-04-21T12:48:38.093Z,100340.38
2023-04-21T12:51:05.894Z,100337.06
2023-04-21T12:53:33.590Z,100331.19
2023-04-21T12:56:05.115Z,100333.00
2023-04-21T12:58:33.244Z,100326.91
2023-04-21T13:01:01.120Z,100324.38
2023-04-21T13:03:29.013Z,100323.78
2023-04-21T13:05:58.450Z,100330.16
2023-04-21T13:08:26.417Z,100325.13
2023-04-21T13:10:55.387Z,100320.94
2023-04-21T13:13:23.316Z,100314.75
2023-04-21T13:15:51.086Z,100319.53
2023-04-21T13:18:18.859Z,100315.63
2023-04-21T13:20:47.769Z,100311.53
2023-04-21T13:23:17.103Z,100307.13
2023-04-21T13:25:45.815Z,100304.25
2023-04-21T13:28:14.526Z,100301.34
2023-04-21T13:30:42.405Z,100296.72
2023-04-21T13:33:11.329Z,100294.00
2023-04-21T13:35:39.217Z,100290.56
2023-04-21T13:38:07.014Z,100282.72
2023-04-21T13:40:36.559Z,100275.09
2023-04-21T13:43:04.312Z,100271.81
2023-04-21T13:45:32.330Z,100274.94
2023-04-21T13:48:00.167Z,100266.28
2023-04-21T13:50:27.934Z,100267.44
2023-04-21T13:52:55.634Z,100272.03
2023-04-21T13:55:23.382Z,100276.66
2023-04-21T13:57:52.498Z,100267.97
2023-04-21T14:00:20.937Z,100272.31
2023-04-21T14:02:49.378Z,100259.81
2023-04-21T14:05:17.829Z,100259.81
2023-04-21T14:07:45.914Z,100248.34
2023-04-21T14:10:13.666Z,100253.63
2023-04-21T14:12:41.456Z,100247.34
2023-04-21T14:15:11.590Z,100242.53
2023-04-21T14:17:39.422Z,100244.47
2023-04-21T14:20:09.300Z,100237.28
2023-04-21T14:22:37.050Z,100237.59
2023-04-21T14:25:05.114Z,100230.47
2023-04-21T14:27:33.630Z,100234.50
2023-04-21T14:30:01.598Z,100232.50
2023-04-21T14:32:30.828Z,100237.75
2023-04-21T14:34:59.283Z,100232.78
2023-04-21T14:37:28.182Z,100221.47
2023-04-21T14:39:55.910Z,100222.66
2023-04-21T14:42:23.591Z,100227.34
2023-04-21T14:44:51.560Z,100221.69
2023-04-21T14:47:19.369Z,100227.19
2023-04-21T14:49:55.026Z,100213.47
2023-04-21T14:52:24.522Z,100209.06
2023-04-21T14:54:52.461Z,100211.78
2023-04-21T14:57:21.769Z,100199.44
2023-04-21T14:59:51.094Z,100205.31
2023-04-21T15:02:19.879Z,100200.00
2023-04-21T15:04:49.283Z,100199.34
2023-04-21T15:07:22.893Z,100197.25
2023-04-21T15:09:51.532Z,100202.56
2023-04-21T15:12:19.361Z,100193.03
2023-04-21T15:14:47.181Z,100191.59
2023-04-21T15:17:14.912Z,100182.88
2023-04-21T15:19:42.705Z,100183.72
2023-04-21T15:22:12.243Z,100186.25
2023-04-21T15:24:40.037Z,100184.94
2023-04-21T15:27:07.803Z,100186.88
2023-04-21T15:29:35.950Z,100177.56
2023-04-21T15:32:04.661Z,100179.47
2023-04-21T15:34:32.437Z,100170.19
2023-04-21T15:37:00.189Z,100165.97
2023-04-21T15:39:29.349Z,100171.97
2023-04-21T15:41:58.990Z,100163.81
2023-04-21T15:44:26.771Z,100166.59
2023-04-21T15:46:54.541Z,100164.75
2023-04-21T15:49:24.477Z,100168.34
2023-04-21T15:51:53.729Z,100162.81
2023-04-21T15:54:22.741Z,100161.50
2023-04-21T15:56:52.358Z,100162.06
2023-04-21T15:59:20.051Z,100156.03
2023-04-21T16:01:47.845Z,100148.78
2023-04-21T16:04:16.343Z,100153.97
2023-04-21T16:06:44.260Z,100154.78
2023-04-21T16:09:12.138Z,100156.16
2023-04-21T16:11:40.311Z,100156.91
2023-04-21T16:14:09.782Z,100152.06
2023-04-21T16:16:37.758Z,100147.66
2023-04-21T16:19:05.504Z,100155.22
2023-04-21T16:21:33.434Z,100145.81
2023-04-21T16:24:01.305Z,100150.72
2023-04-21T16:26:29.064Z,100147.78
2023-04-21T16:28:56.738Z,100147.56
2023-04-21T16:31:25.960Z,100153.19
2023-04-21T16:33:59.293Z,100147.44
2023-04-21T16:36:28.365Z,100141.22
2023-04-21T16:38:56.457Z,100145.13
2023-04-21T16:41:24.481Z,100142.06
2023-04-21T16:43:52.453Z,100135.22
2023-04-21T16:46:20.252Z,100130.41
2023-04-21T16:48:49.435Z,100132.13
2023-04-21T16:51:17.503Z,100129.47
2023-04-21T16:53:45.490Z,100129.63
2023-04-21T16:56:14.760Z,100124.41
2023-04-21T16:58:42.517Z,100125.97
2023-04-21T17:01:10.321Z,100122.84
2023-04-21T17:03:38.318Z,100122.25
2023-04-21T17:06:10.787Z,100128.13
2023-04-21T17:08:38.764Z,100116.50
2023-04-21T17:11:06.571Z,100116.63
2023-04-21T17:13:38.129Z,100105.53
2023-04-21T17:16:07.469Z,100097.72
2023-04-21T17:18:35.334Z,100097.34
2023-04-21T17:21:05.975Z,100098.66
2023-04-21T17:23:35.077Z,100098.19
2023-04-21T17:26:03.668Z,100098.31
2023-04-21T17:28:32.239Z,100096.34
2023-04-21T17:31:13.827Z,100102.59
2023-04-21T17:33:42.860Z,100097.22
2023-04-21T17:36:10.653Z,100104.06
2023-04-21T17:38:39.831Z,100099.19
2023-04-21T17:41:08.327Z,100090.84
2023-04-21T17:43:36.071Z,100089.41
2023-04-21T17:46:03.859Z,100093.44
2023-04-21T17:48:31.646Z,100094.78
2023-04-21T17:50:59.328Z,100085.47
2023-04-21T17:53:27.152Z,100094.91
2023-04-21T17:55:56.544Z,100093.91
2023-04-21T17:58:24.450Z,100097.69
2023-04-21T18:00:52.274Z,100105.38
2023-04-21T18:03:20.122Z,100108.59
2023-04-21T18:05:48.074Z,100095.13
2023-04-21T18:08:16.029Z,100097.06
2023-04-21T18:10:43.785Z,100102.59
2023-04-21T18:13:12.918Z,100107.97
2023-04-21T18:15:41.035Z,100110.66
2023-04-21T18:18:09.356Z,100110.19
2023-04-21T18:20:37.671Z,100105.16
2023-04-21T18:23:05.486Z,100110.63
2023-04-21T18:25:41.989Z,100092.81
2023-04-21T18:28:12.996Z,100097.66
2023-04-21T18:30:41.161Z,100093.41
2023-04-21T18:33:09.669Z,100087.78
2023-04-21T18:35:37.571Z,100094.25
2023-04-21T18:38:07.825Z,100078.63
2023-04-21T18:40:37.059Z,100074.84
2023-04-21T18:43:05.098Z,100081.22
2023-04-21T18:45:34.526Z,100077.09
2023-04-21T18:48:02.342Z,100083.72
2023-04-21T18:50:30.888Z,100083.63
2023-04-21T18:52:59.943Z,100088.63
2023-04-21T18:55:27.700Z,100094.91
2023-04-21T18:57:55.481Z,100101.69
2023-04-21T19:00:23.331Z,100093.13
2023-04-21T19:02:52.970Z,100099.84
2023-04-21T19:05:20.900Z,100100.19
2023-04-21T19:07:48.596Z,100100.00
2023-04-21T19:10:16.527Z,100098.97
2023-04-21T19:12:44.700Z,100094.75
2023-04-21T19:15:12.848Z,100100.72
2023-04-21T19:17:41.167Z,100101.47
2023-04-21T19:20:11.760Z,100095.75
2023-04-21T19:22:39.429Z,100102.41
2023-04-21T19:25:08.494Z,100108.31
2023-04-21T19:27:36.936Z,100099.19
2023-04-21T19:30:05.909Z,100104.16
2023-04-21T19:32:33.774Z,100104.19
2023-04-21T19:35:01.644Z,100104.56
2023-04-21T19:37:33.528Z,100105.41
2023-04-21T19:40:02.722Z,100107.47
2023-04-21T19:42:31.236Z,100102.50
2023-04-21T19:44:59.038Z,100089.38
2023-04-21T19:47:26.929Z,100095.75
2023-04-21T19:49:54.688Z,100097.22
2023-04-21T19:52:22.414Z,100094.13
2023-04-21T19:54:51.582Z,100082.09
2023-04-21T19:57:19.282Z,100082.69
2023-04-21T19:59:48.964Z,100083.00
2023-04-21T20:02:17.026Z,100078.47
2023-04-21T20:04:44.983Z,100076.78
2023-04-21T20:07:13.104Z,100071.63
2023-04-21T20:09:40.899Z,100073.03
2023-04-21T20:12:10.120Z,100069.50
2023-04-21T20:14:38.779Z,100076.16
2023-04-21T20:17:06.465Z,100071.22
2023-04-21T20:19:35.653Z,100074.19
2023-04-21T20:22:03.636Z,100071.22
2023-04-21T20:24:31.427Z,100077.22
2023-04-21T20:26:59.227Z,100065.25
2023-04-21T20:29:28.311Z,100063.19
2023-04-21T20:31:57.410Z,100062.22
2023-04-21T20:34:25.378Z,100065.25
2023-04-21T20:36:54.888Z,100055.06
2023-04-21T20:39:22.857Z,100060.94
2023-04-21T20:42:01.056Z,100053.09
2023-04-21T20:44:38.746Z,100044.25
2023-04-21T20:47:08.274Z,100042.94
2023-04-21T20:49:36.402Z,100040.16
2023-04-21T20:52:04.617Z,100040.00
2023-04-21T20:54:34.588Z,100043.75
2023-04-21T20:57:03.020Z,100039.50
2023-04-21T20:59:30.878Z,100045.50
2023-04-21T21:01:59.938Z,100045.81
2023-04-21T21:04:27.940Z,100047.84
2023-04-21T21:06:56.081Z,100055.66
2023-04-21T21:09:23.836Z,100045.56
2023-04-21T21:11:51.570Z,100045.91
2023-04-21T21:14:19.306Z,100067.03
2023-04-21T21:16:47.097Z,100060.09
2023-04-21T21:19:16.390Z,100054.72
2023-04-21T21:21:44.228Z,100059.88
2023-04-21T21:24:11.921Z,100057.97
2023-04-21T21:26:42.595Z,100061.38
2023-04-21T21:29:10.702Z,100063.84
2023-04-21T21:31:38.409Z,100066.81
2023-04-21T21:34:06.185Z,100083.88
2023-04-21T21:36:36.124Z,100073.75
2023-04-21T21:39:03.849Z,100087.50
2023-04-21T21:41:31.627Z,100088.88
2023-04-21T21:43:59.405Z,100089.75
2023-04-21T21:46:27.238Z,100086.38
2023-04-21T21:48:55.023Z,100082.56
2023-04-21T21:51:22.690Z,100072.78
2023-04-21T21:53:51.830Z,100070.34
2023-04-21T21:56:19.970Z,100076.94
2023-04-21T21:58:47.751Z,100069.72
2023-04-21T22:01:18.144Z,100083.22
2023-04-21T22:03:47.363Z,100082.78
2023-04-21T22:06:17.177Z,100071.91
2023-04-21T22:08:45.647Z,100065.44
2023-04-21T22:11:14.822Z,100069.31
2023-04-21T22:13:42.532Z,100071.66
2023-04-21T22:16:10.450Z,100071.66
2023-04-21T22:18:38.455Z,100075.22
2023-04-21T22:21:06.306Z,100062.88
2023-04-21T22:23:34.207Z,100058.91
2023-04-21T22:26:01.888Z,100048.94
2023-04-21T22:28:30.923Z,100062.75
2023-04-21T22:30:58.751Z,100062.94
2023-04-21T22:33:26.622Z,100062.84
2023-04-21T22:35:54.281Z,100067.53
2023-04-21T22:38:22.002Z,100071.78
2023-04-21T22:40:49.771Z,100080.59
2023-04-21T22:43:17.478Z,100088.03
2023-04-21T22:45:46.590Z,100085.69
2023-04-21T22:48:14.874Z,100084.72
2023-04-21T22:50:44.796Z,100089.03
2023-04-21T22:53:13.309Z,100086.75
2023-04-21T22:55:41.125Z,100065.53
2023-04-21T22:58:08.962Z,100075.06
2023-04-21T23:00:36.670Z,100068.44
2023-04-21T23:03:06.016Z,100076.38
2023-04-21T23:05:33.879Z,100076.88
2023-04-21T23:08:01.579Z,100070.09
2023-04-21T23:10:30.150Z,100071.81
2023-04-21T23:12:57.995Z,100067.72
2023-04-21T23:15:26.771Z,100066.03
2023-04-21T23:17:54.598Z,100056.19
2023-04-21T23:20:23.726Z,100057.72
2023-04-21T23:22:51.586Z,100066.09
2023-04-21T23:25:19.471Z,100056.00
2023-04-21T23:27:47.185Z,100039.94
2023-04-21T23:30:15.364Z,100027.31
2023-04-21T23:32:43.733Z,100014.81
2023-04-21T23:35:11.565Z,100002.91
2023-04-21T23:37:40.693Z,99998.31
2023-04-21T23:40:11.189Z,100007.03
2023-04-21T23:42:39.437Z,99983.78
2023-04-21T23:45:08.430Z,99982.81
2023-04-21T23:47:36.250Z,99982.91
2023-04-21T23:50:03.973Z,99980.41
2023-04-21T23:52:31.709Z,99979.56
2023-04-21T23:55:00.752Z,99984.06
2023-04-21T23:57:28.396Z,99976.94
2023-04-21T23:59:56.053Z,99963.25
